createdAt,value
2022-11-26T00:00:43.102Z,1.03
2022-11-26T00:05:02.369Z,0.99
2022-11-26T00:09:08.406Z,0.98
2022-11-26T00:13:22.479Z,1.01
2022-11-26T00:17:24.606Z,1.03
2022-11-26T00:21:27.124Z,1.03
2022-11-26T00:25:42.952Z,0.97
2022-11-26T00:29:45.045Z,0.97
2022-11-26T00:33:47.657Z,1.01
2022-11-26T00:37:56.129Z,1.08
2022-11-26T00:41:58.300Z,1.07
2022-11-26T00:46:00.520Z,1.02
2022-11-26T00:50:02.838Z,1.04
2022-11-26T00:54:06.575Z,1.08
2022-11-26T00:58:24.988Z,1.14
2022-11-26T01:02:27.193Z,1.21
2022-11-26T01:06:34.441Z,1.26
2022-11-26T01:10:36.710Z,1.26
2022-11-26T01:14:38.943Z,1.24
2022-11-26T01:18:41.406Z,1.22
2022-11-26T01:22:43.528Z,1.22
2022-11-26T01:26:45.706Z,1.27
2022-11-26T01:30:47.785Z,1.28
2022-11-26T01:34:49.927Z,1.24
2022-11-26T01:38:53.863Z,1.21
2022-11-26T01:43:00.639Z,1.20
2022-11-26T01:47:20.588Z,1.23
2022-11-26T01:51:27.837Z,1.27
2022-11-26T01:55:38.297Z,1.28
2022-11-26T01:59:44.795Z,1.22
2022-11-26T02:04:05.389Z,1.12
2022-11-26T02:08:09.402Z,1.10
2022-11-26T02:12:11.690Z,1.14
2022-11-26T02:16:20.255Z,1.20
2022-11-26T02:20:48.132Z,1.23
2022-11-26T02:25:02.347Z,1.20
2022-11-26T02:29:29.457Z,1.12
2022-11-26T02:34:02.297Z,1.07
2022-11-26T02:38:09.355Z,1.10
2022-11-26T02:42:26.410Z,1.10
2022-11-26T02:46:29.107Z,1.05
2022-11-26T02:50:49.165Z,1.06
2022-11-26T02:54:53.949Z,1.10
2022-11-26T02:58:57.742Z,1.14
2022-11-26T03:03:07.869Z,1.20
2022-11-26T03:07:12.582Z,1.21
2022-11-26T03:11:14.753Z,1.20
2022-11-26T03:15:16.939Z,1.22
2022-11-26T03:19:19.115Z,1.21
2022-11-26T03:23:21.364Z,1.22
2022-11-26T03:27:23.381Z,1.28
2022-11-26T03:31:25.452Z,1.31
2022-11-26T03:35:27.598Z,1.29
2022-11-26T03:39:29.589Z,1.27
2022-11-26T03:43:31.619Z,1.26
2022-11-26T03:47:33.746Z,1.27
2022-11-26T03:51:35.895Z,1.26
2022-11-26T03:55:37.943Z,1.26
2022-11-26T03:59:39.970Z,1.25
2022-11-26T04:03:42.105Z,1.16
2022-11-26T04:07:44.243Z,1.08
2022-11-26T04:11:46.316Z,1.05
2022-11-26T04:15:48.989Z,1.11
2022-11-26T04:19:51.052Z,1.16
2022-11-26T04:23:53.109Z,1.21
2022-11-26T04:27:56.200Z,1.22
2022-11-26T04:31:58.733Z,1.24
2022-11-26T04:36:00.767Z,1.28
2022-11-26T04:40:03.518Z,1.32
2022-11-26T04:44:05.704Z,1.31
2022-11-26T04:48:07.961Z,1.27
2022-11-26T04:52:10.265Z,1.22
2022-11-26T04:56:12.324Z,1.20
2022-11-26T05:00:16.418Z,1.22
2022-11-26T05:04:19.802Z,1.24
2022-11-26T05:08:21.819Z,1.24
2022-11-26T05:12:24.001Z,1.24
2022-11-26T05:16:26.025Z,1.24
2022-11-26T05:20:28.207Z,1.22
2022-11-26T05:24:30.304Z,1.23
2022-11-26T05:28:32.351Z,1.27
2022-11-26T05:32:34.514Z,1.28
2022-11-26T05:36:36.668Z,1.27
2022-11-26T05:40:38.703Z,1.26
2022-11-26T05:44:41.169Z,1.25
2022-11-26T05:48:44.075Z,1.27
2022-11-26T05:52:47.155Z,1.33
2022-11-26T05:56:49.609Z,1.35
2022-11-26T06:00:52.352Z,1.36
2022-11-26T06:04:55.745Z,1.35
2022-11-26T06:08:58.892Z,1.32
2022-11-26T06:13:00.871Z,1.33
2022-11-26T06:17:02.895Z,1.37
2022-11-26T06:21:06.606Z,1.40
2022-11-26T06:25:11.625Z,1.40
2022-11-26T06:29:13.661Z,1.40
2022-11-26T06:33:15.916Z,1.39
2022-11-26T06:37:21.101Z,1.40
2022-11-26T06:41:23.290Z,1.42
2022-11-26T06:45:31.721Z,1.36
2022-11-26T06:49:35.379Z,1.32
2022-11-26T06:53:38.104Z,1.35
2022-11-26T06:57:40.163Z,1.40
2022-11-26T07:01:42.442Z,1.41
2022-11-26T07:05:44.606Z,1.45
2022-11-26T07:09:46.667Z,1.52
2022-11-26T07:13:48.909Z,1.57
2022-11-26T07:17:51.016Z,1.56
2022-11-26T07:21:53.823Z,1.57
2022-11-26T07:26:01.918Z,1.60
2022-11-26T07:30:05.603Z,1.64
2022-11-26T07:34:07.751Z,1.67
2022-11-26T07:38:09.936Z,1.60
2022-11-26T07:42:13.436Z,1.49
2022-11-26T07:46:19.050Z,1.45
2022-11-26T07:50:21.276Z,1.46
2022-11-26T07:54:23.467Z,1.55
2022-11-26T07:58:28.913Z,1.64
2022-11-26T08:02:31.049Z,1.70
2022-11-26T08:06:34.104Z,1.76
2022-11-26T08:10:36.762Z,1.80
2022-11-26T08:14:39.107Z,1.76
2022-11-26T08:18:41.811Z,1.75
2022-11-26T08:22:44.134Z,1.73
2022-11-26T08:26:46.583Z,1.63
2022-11-26T08:30:50.840Z,1.64
2022-11-26T08:34:52.896Z,1.62
2022-11-26T08:38:55.074Z,1.51
2022-11-26T08:42:57.478Z,1.43
2022-11-26T08:46:59.536Z,1.47
2022-11-26T08:51:11.813Z,1.61
2022-11-26T08:55:13.890Z,1.69
2022-11-26T08:59:17.010Z,1.73
2022-11-26T09:03:19.077Z,1.77
2022-11-26T09:07:21.138Z,1.81
2022-11-26T09:11:25.526Z,1.85
2022-11-26T09:15:27.687Z,1.95
2022-11-26T09:19:29.999Z,1.96
2022-11-26T09:23:32.036Z,1.97
2022-11-26T09:27:34.040Z,1.83
2022-11-26T09:31:36.098Z,1.75
2022-11-26T09:35:38.160Z,1.75
2022-11-26T09:39:40.133Z,1.71
2022-11-26T09:44:07.587Z,1.71
2022-11-26T09:48:19.033Z,1.73
2022-11-26T09:52:25.845Z,1.73
2022-11-26T09:56:28.384Z,1.71
2022-11-26T10:00:39.228Z,1.71
2022-11-26T10:04:42.104Z,1.78
2022-11-26T10:09:12.311Z,1.81
2022-11-26T10:13:20.143Z,1.75
2022-11-26T10:17:44.551Z,1.73
2022-11-26T10:22:00.043Z,1.79
2022-11-26T10:26:41.475Z,1.93
2022-11-26T10:30:45.571Z,2.17
2022-11-26T10:34:58.262Z,2.27
2022-11-26T10:39:00.441Z,2.27
2022-11-26T10:43:21.783Z,2.32
2022-11-26T10:47:31.176Z,2.34
2022-11-26T10:51:37.342Z,2.29
2022-11-26T10:55:43.270Z,2.19
2022-11-26T10:59:51.649Z,2.12
2022-11-26T11:04:11.779Z,2.00
2022-11-26T11:08:34.188Z,1.97
2022-11-26T11:12:37.937Z,1.77
2022-11-26T11:16:45.633Z,1.65
2022-11-26T11:20:55.287Z,1.54
2022-11-26T11:24:59.812Z,1.47
2022-11-26T11:29:02.272Z,1.45
2022-11-26T11:33:23.928Z,1.41
2022-11-26T11:37:27.809Z,1.38
2022-11-26T11:41:43.587Z,1.36
2022-11-26T11:46:10.878Z,1.26
2022-11-26T11:50:22.370Z,1.19
2022-11-26T11:54:56.657Z,1.17
2022-11-26T11:59:47.259Z,1.16
2022-11-26T12:04:21.685Z,1.20
2022-11-26T12:08:52.388Z,1.18
2022-11-26T12:13:01.381Z,1.20
2022-11-26T12:17:06.636Z,1.13
2022-11-26T12:21:15.377Z,1.07
2022-11-26T12:25:36.679Z,1.08
2022-11-26T12:29:47.292Z,1.06
2022-11-26T12:34:02.873Z,1.04
2022-11-26T12:38:29.976Z,0.95
2022-11-26T12:42:45.420Z,0.94
2022-11-26T13:20:27.953Z,0.90
2022-11-26T13:25:08.503Z,0.92
2022-11-26T13:29:33.454Z,0.94
2022-11-26T13:34:07.586Z,0.94
2022-11-26T13:38:18.584Z,0.95
2022-11-26T13:42:38.925Z,0.95
2022-11-26T13:46:51.023Z,0.97
2022-11-26T13:51:05.230Z,0.95
2022-11-26T13:55:26.803Z,0.93
2022-11-26T13:59:30.960Z,0.94
2022-11-26T14:03:47.839Z,0.97
2022-11-26T14:07:50.569Z,0.99
2022-11-26T14:11:56.301Z,0.98
2022-11-26T14:16:00.118Z,1.01
2022-11-26T14:20:03.651Z,1.02
2022-11-26T14:24:05.955Z,1.00
2022-11-26T14:28:09.563Z,0.94
2022-11-26T14:32:17.836Z,0.90
2022-11-26T14:36:24.669Z,0.87
2022-11-26T14:40:31.702Z,0.81
2022-11-26T14:44:34.025Z,0.78
2022-11-26T14:48:42.229Z,0.79
2022-11-26T14:52:45.757Z,0.75
2022-11-26T14:56:48.438Z,0.74
2022-11-26T15:01:12.462Z,0.73
2022-11-26T15:05:17.524Z,0.68
2022-11-26T15:09:24.222Z,0.65
2022-11-26T15:13:40.156Z,0.61
2022-11-26T15:17:46.694Z,0.62
2022-11-26T15:21:48.929Z,0.64
2022-11-26T15:25:51.971Z,0.63
2022-11-26T15:29:54.616Z,0.61
2022-11-26T15:33:59.469Z,0.63
2022-11-26T15:38:07.305Z,0.65
2022-11-26T15:42:29.460Z,0.67
2022-11-26T15:46:35.338Z,0.68
2022-11-26T15:50:38.113Z,0.66
2022-11-26T15:55:11.377Z,0.66
2022-11-26T15:59:16.167Z,0.67
2022-11-26T16:03:41.583Z,0.64
2022-11-26T16:08:00.419Z,0.62
2022-11-26T16:12:04.058Z,0.63
2022-11-26T16:16:19.464Z,0.61
2022-11-26T16:20:27.633Z,0.56
2022-11-26T16:24:43.574Z,0.54
2022-11-26T16:28:49.692Z,0.55
2022-11-26T16:32:55.851Z,0.56
2022-11-26T16:37:02.182Z,0.55
2022-11-26T16:41:07.660Z,0.52
2022-11-26T16:45:12.834Z,0.51
2022-11-26T16:49:21.663Z,0.54
2022-11-26T16:54:21.733Z,0.58
2022-11-26T16:59:22.335Z,0.56
2022-11-26T17:45:17.958Z,0.60
2022-11-26T17:49:45.065Z,0.59
2022-11-26T17:53:47.862Z,0.56
2022-11-26T17:57:51.290Z,0.58
2022-11-26T18:01:53.791Z,0.62
2022-11-26T18:05:56.193Z,0.66
2022-11-26T18:09:58.495Z,0.61
2022-11-26T18:14:02.578Z,0.59
2022-11-26T18:18:04.855Z,0.55
2022-11-26T18:22:08.503Z,0.47
2022-11-26T18:26:19.667Z,0.43
2022-11-26T18:30:24.349Z,0.41
2022-11-26T18:34:34.098Z,0.35
2022-11-26T18:38:38.458Z,0.32
2022-11-26T18:42:51.949Z,0.34
2022-11-26T18:51:59.635Z,0.49
2022-11-26T18:56:25.444Z,0.42
2022-11-26T19:09:43.074Z,0.16
2022-11-26T19:14:10.511Z,0.12
2022-11-26T19:18:32.433Z,0.15
2022-11-26T19:22:39.965Z,0.17
2022-11-26T19:27:09.525Z,0.20
2022-11-26T19:34:54.765Z,0.23
2022-11-26T19:36:39.471Z,0.17
2022-11-26T19:41:01.838Z,0.13
2022-11-26T19:45:19.474Z,0.14
2022-11-26T19:49:38.177Z,0.13
2022-11-26T19:54:18.378Z,0.13
2022-11-26T19:58:24.824Z,0.19
2022-11-26T20:02:27.097Z,0.20
2022-11-26T20:06:31.416Z,0.19
2022-11-26T20:10:33.462Z,0.16
2022-11-26T20:14:35.488Z,0.14
2022-11-26T20:18:39.626Z,0.17
2022-11-26T20:22:42.705Z,0.13
2022-11-26T20:26:46.709Z,0.05
2022-11-26T20:30:49.714Z,0.01
2022-11-26T20:34:51.844Z,0.01
2022-11-26T20:38:58.141Z,0.01
2022-11-26T20:43:00.726Z,0.01
2022-11-26T20:47:02.868Z,0.02
2022-11-26T20:51:11.403Z,0.01
2022-11-26T20:55:13.599Z,0.02
2022-11-26T20:59:15.588Z,0.02
2022-11-26T21:03:17.573Z,0.04
2022-11-26T21:07:19.644Z,-0.01
2022-11-26T21:11:21.884Z,-0.05
2022-11-26T21:15:24.147Z,-0.00
2022-11-26T21:19:26.223Z,-0.01
2022-11-26T21:23:28.168Z,-0.05
2022-11-26T21:27:32.187Z,-0.03
2022-11-26T21:31:34.166Z,-0.01
2022-11-26T21:35:36.977Z,-0.04
2022-11-26T21:39:39.130Z,-0.03
2022-11-26T21:43:42.935Z,-0.07
2022-11-26T21:47:45.054Z,-0.06
2022-11-26T21:51:47.035Z,-0.02
2022-11-26T21:55:49.017Z,-0.06
2022-11-26T21:59:52.267Z,-0.08
2022-11-26T22:03:58.526Z,-0.07
2022-11-26T22:08:00.928Z,-0.12
2022-11-26T22:12:02.948Z,-0.13
2022-11-26T22:16:05.950Z,-0.10
2022-11-26T22:20:08.541Z,-0.09
2022-11-26T22:24:16.216Z,-0.07
2022-11-26T22:28:19.047Z,-0.06
2022-11-26T22:32:21.242Z,-0.04
2022-11-26T22:36:23.913Z,-0.02
2022-11-26T22:40:26.152Z,-0.04
2022-11-26T22:44:28.204Z,-0.07
2022-11-26T22:48:30.220Z,-0.09
2022-11-26T22:52:32.146Z,-0.11
2022-11-26T22:56:37.444Z,-0.11
2022-11-26T23:00:45.315Z,-0.17
2022-11-26T23:04:47.447Z,-0.24
2022-11-26T23:08:49.594Z,-0.27
2022-11-26T23:12:51.599Z,-0.21
2022-11-26T23:16:53.601Z,-0.14
2022-11-26T23:21:16.354Z,-0.13
2022-11-26T23:25:20.518Z,-0.16
2022-11-26T23:29:22.520Z,-0.16
2022-11-26T23:33:24.448Z,-0.20
2022-11-26T23:37:26.383Z,-0.23
2022-11-26T23:41:28.459Z,-0.23
2022-11-26T23:45:30.432Z,-0.21
2022-11-26T23:49:32.431Z,-0.19
2022-11-26T23:53:39.500Z,-0.19
2022-11-26T23:57:41.489Z,-0.19
